sensor_id;sensor_type;location;lat;lon;timestamp;P1;durP1;ratioP1;P2;durP2;ratioP2
35462;SDS011;21578;47.892;9.970;2024-02-15T00:04:36;3.83;;;2.37;;
35462;SDS011;21578;47.892;9.970;2024-02-15T00:09:22;1.47;;;1.27;;
35462;SDS011;21578;47.892;9.970;2024-02-15T00:14:09;5.70;;;3.50;;
35462;SDS011;21578;47.892;9.970;2024-02-15T00:18:58;36.83;;;21.93;;
35462;SDS011;21578;47.892;9.970;2024-02-15T00:23:45;32.17;;;19.10;;
35462;SDS011;21578;47.892;9.970;2024-02-15T00:28:32;42.23;;;23.43;;
35462;SDS011;21578;47.892;9.970;2024-02-15T00:33:19;42.50;;;20.73;;
35462;SDS011;21578;47.892;9.970;2024-02-15T00:38:08;12.50;;;7.80;;
35462;SDS011;21578;47.892;9.970;2024-02-15T00:42:55;6.80;;;3.43;;
35462;SDS011;21578;47.892;9.970;2024-02-15T00:47:42;4.90;;;3.20;;
35462;SDS011;21578;47.892;9.970;2024-02-15T00:52:29;1.67;;;1.50;;
35462;SDS011;21578;47.892;9.970;2024-02-15T00:57:17;20.07;;;15.70;;
35462;SDS011;21578;47.892;9.970;2024-02-15T01:02:04;5.40;;;3.60;;
35462;SDS011;21578;47.892;9.970;2024-02-15T01:06:51;4.40;;;2.60;;
35462;SDS011;21578;47.892;9.970;2024-02-15T01:11:38;3.87;;;2.53;;
35462;SDS011;21578;47.892;9.970;2024-02-15T01:16:26;2.87;;;2.40;;
35462;SDS011;21578;47.892;9.970;2024-02-15T01:21:13;3.47;;;2.40;;
35462;SDS011;21578;47.892;9.970;2024-02-15T01:26:00;2.67;;;2.03;;
35462;SDS011;21578;47.892;9.970;2024-02-15T01:30:48;2.33;;;2.10;;
35462;SDS011;21578;47.892;9.970;2024-02-15T01:35:36;1.77;;;0.70;;
35462;SDS011;21578;47.892;9.970;2024-02-15T01:40:23;3.77;;;2.93;;
35462;SDS011;21578;47.892;9.970;2024-02-15T01:45:10;3.30;;;3.00;;
35462;SDS011;21578;47.892;9.970;2024-02-15T01:49:58;1.70;;;1.50;;
35462;SDS011;21578;47.892;9.970;2024-02-15T01:54:46;2.93;;;2.47;;
35462;SDS011;21578;47.892;9.970;2024-02-15T01:59:33;3.93;;;3.40;;
35462;SDS011;21578;47.892;9.970;2024-02-15T02:04:20;4.73;;;3.73;;
35462;SDS011;21578;47.892;9.970;2024-02-15T02:09:09;2.50;;;2.30;;
35462;SDS011;21578;47.892;9.970;2024-02-15T02:14:00;8.67;;;6.23;;
35462;SDS011;21578;47.892;9.970;2024-02-15T02:18:47;15.63;;;11.33;;
35462;SDS011;21578;47.892;9.970;2024-02-15T02:23:36;4.77;;;4.10;;
35462;SDS011;21578;47.892;9.970;2024-02-15T02:28:24;5.67;;;4.30;;
35462;SDS011;21578;47.892;9.970;2024-02-15T02:33:11;8.70;;;6.23;;
35462;SDS011;21578;47.892;9.970;2024-02-15T02:38:03;12.03;;;8.63;;
35462;SDS011;21578;47.892;9.970;2024-02-15T02:42:50;7.53;;;5.50;;
35462;SDS011;21578;47.892;9.970;2024-02-15T02:47:42;1.27;;;1.17;;
35462;SDS011;21578;47.892;9.970;2024-02-15T02:52:29;1.50;;;1.07;;
35462;SDS011;21578;47.892;9.970;2024-02-15T02:57:16;10.87;;;7.10;;
35462;SDS011;21578;47.892;9.970;2024-02-15T03:02:03;6.13;;;3.77;;
35462;SDS011;21578;47.892;9.970;2024-02-15T03:06:52;5.90;;;3.77;;
35462;SDS011;21578;47.892;9.970;2024-02-15T03:11:41;3.10;;;2.80;;
35462;SDS011;21578;47.892;9.970;2024-02-15T03:16:27;2.57;;;1.53;;
35462;SDS011;21578;47.892;9.970;2024-02-15T03:21:14;3.80;;;2.93;;
35462;SDS011;21578;47.892;9.970;2024-02-15T03:26:03;3.97;;;2.27;;
35462;SDS011;21578;47.892;9.970;2024-02-15T03:30:50;2.33;;;1.83;;
35462;SDS011;21578;47.892;9.970;2024-02-15T03:35:37;1.23;;;1.00;;
35462;SDS011;21578;47.892;9.970;2024-02-15T03:40:24;3.13;;;0.97;;
35462;SDS011;21578;47.892;9.970;2024-02-15T03:45:13;1.17;;;0.87;;
35462;SDS011;21578;47.892;9.970;2024-02-15T03:50:01;1.20;;;1.10;;
35462;SDS011;21578;47.892;9.970;2024-02-15T03:54:48;1.20;;;1.03;;
35462;SDS011;21578;47.892;9.970;2024-02-15T03:59:35;1.67;;;0.70;;
35462;SDS011;21578;47.892;9.970;2024-02-15T04:04:24;1.07;;;0.97;;
35462;SDS011;21578;47.892;9.970;2024-02-15T04:09:11;1.30;;;0.90;;
35462;SDS011;21578;47.892;9.970;2024-02-15T04:13:58;1.53;;;0.90;;
35462;SDS011;21578;47.892;9.970;2024-02-15T04:18:45;1.70;;;0.80;;
35462;SDS011;21578;47.892;9.970;2024-02-15T04:23:33;0.83;;;0.60;;
35462;SDS011;21578;47.892;9.970;2024-02-15T04:28:20;1.13;;;0.97;;
35462;SDS011;21578;47.892;9.970;2024-02-15T04:33:07;1.13;;;0.70;;
35462;SDS011;21578;47.892;9.970;2024-02-15T04:37:55;2.07;;;0.80;;
35462;SDS011;21578;47.892;9.970;2024-02-15T04:42:44;2.70;;;0.60;;
35462;SDS011;21578;47.892;9.970;2024-02-15T04:47:32;0.93;;;0.50;;
35462;SDS011;21578;47.892;9.970;2024-02-15T04:52:19;0.70;;;0.70;;
35462;SDS011;21578;47.892;9.970;2024-02-15T04:57:08;0.87;;;0.60;;
35462;SDS011;21578;47.892;9.970;2024-02-15T05:01:58;1.33;;;0.50;;
35462;SDS011;21578;47.892;9.970;2024-02-15T05:06:45;0.87;;;0.60;;
35462;SDS011;21578;47.892;9.970;2024-02-15T05:11:32;1.80;;;0.83;;
35462;SDS011;21578;47.892;9.970;2024-02-15T05:16:20;3.10;;;1.70;;
35462;SDS011;21578;47.892;9.970;2024-02-15T05:21:08;1.80;;;0.80;;
35462;SDS011;21578;47.892;9.970;2024-02-15T05:25:55;1.90;;;0.70;;
35462;SDS011;21578;47.892;9.970;2024-02-15T05:30:43;0.77;;;0.60;;
35462;SDS011;21578;47.892;9.970;2024-02-15T05:35:30;1.90;;;0.70;;
35462;SDS011;21578;47.892;9.970;2024-02-15T05:40:18;0.80;;;0.70;;
35462;SDS011;21578;47.892;9.970;2024-02-15T05:45:15;2.80;;;1.27;;
35462;SDS011;21578;47.892;9.970;2024-02-15T05:50:17;1.67;;;1.10;;
35462;SDS011;21578;47.892;9.970;2024-02-15T05:55:07;3.43;;;1.40;;
35462;SDS011;21578;47.892;9.970;2024-02-15T05:59:56;1.63;;;1.00;;
35462;SDS011;21578;47.892;9.970;2024-02-15T06:04:47;0.70;;;0.60;;
35462;SDS011;21578;47.892;9.970;2024-02-15T06:09:34;0.60;;;0.60;;
35462;SDS011;21578;47.892;9.970;2024-02-15T06:14:22;0.87;;;0.57;;
35462;SDS011;21578;47.892;9.970;2024-02-15T06:19:10;0.50;;;0.40;;
35462;SDS011;21578;47.892;9.970;2024-02-15T06:23:57;2.43;;;1.83;;
35462;SDS011;21578;47.892;9.970;2024-02-15T06:28:44;2.20;;;1.50;;
35462;SDS011;21578;47.892;9.970;2024-02-15T06:33:48;1.30;;;1.20;;
35462;SDS011;21578;47.892;9.970;2024-02-15T06:38:54;1.37;;;0.80;;
35462;SDS011;21578;47.892;9.970;2024-02-15T06:43:58;1.20;;;1.10;;
35462;SDS011;21578;47.892;9.970;2024-02-15T06:48:45;3.77;;;1.03;;
35462;SDS011;21578;47.892;9.970;2024-02-15T06:53:32;1.30;;;0.80;;
35462;SDS011;21578;47.892;9.970;2024-02-15T06:58:20;1.60;;;0.97;;
35462;SDS011;21578;47.892;9.970;2024-02-15T07:03:07;1.73;;;1.00;;
35462;SDS011;21578;47.892;9.970;2024-02-15T07:07:54;6.03;;;2.60;;
35462;SDS011;21578;47.892;9.970;2024-02-15T07:12:41;0.80;;;0.50;;
35462;SDS011;21578;47.892;9.970;2024-02-15T07:17:30;0.40;;;0.40;;
35462;SDS011;21578;47.892;9.970;2024-02-15T07:22:17;6.30;;;2.40;;
35462;SDS011;21578;47.892;9.970;2024-02-15T07:27:04;4.37;;;1.40;;
35462;SDS011;21578;47.892;9.970;2024-02-15T07:31:51;2.07;;;0.60;;
35462;SDS011;21578;47.892;9.970;2024-02-15T07:36:41;1.50;;;0.90;;
35462;SDS011;21578;47.892;9.970;2024-02-15T07:41:30;4.53;;;3.00;;
35462;SDS011;21578;47.892;9.970;2024-02-15T07:46:17;5.60;;;2.80;;
35462;SDS011;21578;47.892;9.970;2024-02-15T07:51:04;4.67;;;3.03;;
35462;SDS011;21578;47.892;9.970;2024-02-15T07:55:56;4.33;;;2.20;;
35462;SDS011;21578;47.892;9.970;2024-02-15T08:00:44;1.77;;;0.83;;
35462;SDS011;21578;47.892;9.970;2024-02-15T08:05:32;1.53;;;0.53;;
35462;SDS011;21578;47.892;9.970;2024-02-15T08:10:18;6.13;;;1.37;;
35462;SDS011;21578;47.892;9.970;2024-02-15T08:15:09;2.23;;;0.83;;
35462;SDS011;21578;47.892;9.970;2024-02-15T08:19:57;0.73;;;0.73;;
35462;SDS011;21578;47.892;9.970;2024-02-15T08:24:44;3.67;;;1.30;;
35462;SDS011;21578;47.892;9.970;2024-02-15T08:29:32;9.00;;;3.53;;
35462;SDS011;21578;47.892;9.970;2024-02-15T08:34:21;1.87;;;1.00;;
35462;SDS011;21578;47.892;9.970;2024-02-15T08:39:08;7.13;;;2.27;;
35462;SDS011;21578;47.892;9.970;2024-02-15T08:43:57;5.83;;;1.17;;
35462;SDS011;21578;47.892;9.970;2024-02-15T08:48:45;5.27;;;2.90;;
35462;SDS011;21578;47.892;9.970;2024-02-15T08:53:34;1.50;;;1.20;;
35462;SDS011;21578;47.892;9.970;2024-02-15T08:58:21;0.90;;;0.43;;
35462;SDS011;21578;47.892;9.970;2024-02-15T09:03:08;1.70;;;0.30;;
35462;SDS011;21578;47.892;9.970;2024-02-15T09:07:55;0.73;;;0.60;;
35462;SDS011;21578;47.892;9.970;2024-02-15T09:12:44;0.30;;;0.30;;
35462;SDS011;21578;47.892;9.970;2024-02-15T09:17:34;0.50;;;0.30;;
35462;SDS011;21578;47.892;9.970;2024-02-15T09:22:23;0.50;;;0.20;;
35462;SDS011;21578;47.892;9.970;2024-02-15T09:27:12;0.30;;;0.30;;
35462;SDS011;21578;47.892;9.970;2024-02-15T09:32:00;0.10;;;0.10;;
35462;SDS011;21578;47.892;9.970;2024-02-15T09:36:47;0.10;;;0.10;;
35462;SDS011;21578;47.892;9.970;2024-02-15T09:41:34;0.10;;;0.10;;
35462;SDS011;21578;47.892;9.970;2024-02-15T09:46:21;0.10;;;0.10;;
35462;SDS011;21578;47.892;9.970;2024-02-15T09:51:10;0.10;;;0.10;;
35462;SDS011;21578;47.892;9.970;2024-02-15T09:55:58;0.30;;;0.30;;
35462;SDS011;21578;47.892;9.970;2024-02-15T10:00:49;0.70;;;0.20;;
35462;SDS011;21578;47.892;9.970;2024-02-15T10:05:36;0.37;;;0.37;;
35462;SDS011;21578;47.892;9.970;2024-02-15T10:10:27;0.23;;;0.20;;
35462;SDS011;21578;47.892;9.970;2024-02-15T10:15:27;0.50;;;0.20;;
35462;SDS011;21578;47.892;9.970;2024-02-15T10:20:15;0.33;;;0.13;;
35462;SDS011;21578;47.892;9.970;2024-02-15T10:25:10;0.10;;;0.10;;
35462;SDS011;21578;47.892;9.970;2024-02-15T10:30:00;0.20;;;0.20;;
35462;SDS011;21578;47.892;9.970;2024-02-15T10:35:01;1.33;;;0.60;;
35462;SDS011;21578;47.892;9.970;2024-02-15T10:39:59;0.20;;;0.20;;
35462;SDS011;21578;47.892;9.970;2024-02-15T10:44:52;0.10;;;0.10;;
35462;SDS011;21578;47.892;9.970;2024-02-15T10:49:41;0.10;;;0.10;;
35462;SDS011;21578;47.892;9.970;2024-02-15T10:54:40;1.60;;;0.10;;
35462;SDS011;21578;47.892;9.970;2024-02-15T10:59:28;0.60;;;0.40;;
35462;SDS011;21578;47.892;9.970;2024-02-15T11:04:21;0.87;;;0.13;;
35462;SDS011;21578;47.892;9.970;2024-02-15T11:09:13;0.30;;;0.13;;
35462;SDS011;21578;47.892;9.970;2024-02-15T11:19:23;0.20;;;0.20;;
35462;SDS011;21578;47.892;9.970;2024-02-15T11:24:28;0.10;;;0.10;;
35462;SDS011;21578;47.892;9.970;2024-02-15T11:34:42;0.53;;;0.10;;
35462;SDS011;21578;47.892;9.970;2024-02-15T11:39:43;2.13;;;0.17;;
35462;SDS011;21578;47.892;9.970;2024-02-15T11:44:32;0.53;;;0.20;;
35462;SDS011;21578;47.892;9.970;2024-02-15T11:49:19;0.10;;;0.10;;
35462;SDS011;21578;47.892;9.970;2024-02-15T11:54:07;0.20;;;0.20;;
35462;SDS011;21578;47.892;9.970;2024-02-15T11:59:04;0.20;;;0.20;;
35462;SDS011;21578;47.892;9.970;2024-02-15T12:03:52;0.70;;;0.20;;
35462;SDS011;21578;47.892;9.970;2024-02-15T12:08:57;2.20;;;1.57;;
35462;SDS011;21578;47.892;9.970;2024-02-15T12:14:01;0.30;;;0.20;;
35462;SDS011;21578;47.892;9.970;2024-02-15T12:19:07;0.30;;;0.20;;
35462;SDS011;21578;47.892;9.970;2024-02-15T12:23:55;0.60;;;0.60;;
35462;SDS011;21578;47.892;9.970;2024-02-15T12:28:43;0.43;;;0.40;;
35462;SDS011;21578;47.892;9.970;2024-02-15T12:33:30;1.60;;;0.40;;
35462;SDS011;21578;47.892;9.970;2024-02-15T12:38:18;0.30;;;0.30;;
35462;SDS011;21578;47.892;9.970;2024-02-15T12:43:07;1.33;;;0.30;;
35462;SDS011;21578;47.892;9.970;2024-02-15T12:47:54;11.70;;;7.50;;
35462;SDS011;21578;47.892;9.970;2024-02-15T12:52:42;0.57;;;0.50;;
35462;SDS011;21578;47.892;9.970;2024-02-15T12:57:34;0.40;;;0.40;;
35462;SDS011;21578;47.892;9.970;2024-02-15T13:02:21;0.83;;;0.50;;
35462;SDS011;21578;47.892;9.970;2024-02-15T13:07:08;1.60;;;0.40;;
35462;SDS011;21578;47.892;9.970;2024-02-15T13:11:54;0.50;;;0.50;;
35462;SDS011;21578;47.892;9.970;2024-02-15T13:16:45;0.70;;;0.30;;
35462;SDS011;21578;47.892;9.970;2024-02-15T13:21:34;0.37;;;0.37;;
35462;SDS011;21578;47.892;9.970;2024-02-15T13:26:21;0.37;;;0.30;;
35462;SDS011;21578;47.892;9.970;2024-02-15T13:31:10;1.43;;;0.50;;
35462;SDS011;21578;47.892;9.970;2024-02-15T13:35:59;2.00;;;0.90;;
35462;SDS011;21578;47.892;9.970;2024-02-15T13:40:47;1.60;;;1.10;;
35462;SDS011;21578;47.892;9.970;2024-02-15T13:45:38;0.70;;;0.50;;
35462;SDS011;21578;47.892;9.970;2024-02-15T13:50:25;0.63;;;0.50;;
35462;SDS011;21578;47.892;9.970;2024-02-15T13:55:16;2.50;;;0.60;;
35462;SDS011;21578;47.892;9.970;2024-02-15T14:00:04;0.77;;;0.60;;
35462;SDS011;21578;47.892;9.970;2024-02-15T14:04:51;1.30;;;0.40;;
35462;SDS011;21578;47.892;9.970;2024-02-15T14:09:38;0.60;;;0.50;;
35462;SDS011;21578;47.892;9.970;2024-02-15T14:14:27;0.90;;;0.50;;
35462;SDS011;21578;47.892;9.970;2024-02-15T14:19:14;0.63;;;0.47;;
35462;SDS011;21578;47.892;9.970;2024-02-15T14:24:02;4.37;;;0.60;;
35462;SDS011;21578;47.892;9.970;2024-02-15T14:28:52;0.60;;;0.60;;
35462;SDS011;21578;47.892;9.970;2024-02-15T14:33:42;0.50;;;0.50;;
35462;SDS011;21578;47.892;9.970;2024-02-15T14:38:29;0.47;;;0.47;;
35462;SDS011;21578;47.892;9.970;2024-02-15T14:43:15;0.40;;;0.40;;
35462;SDS011;21578;47.892;9.970;2024-02-15T14:48:06;0.83;;;0.80;;
35462;SDS011;21578;47.892;9.970;2024-02-15T14:52:56;1.67;;;0.60;;
35462;SDS011;21578;47.892;9.970;2024-02-15T14:57:43;1.17;;;0.50;;
35462;SDS011;21578;47.892;9.970;2024-02-15T15:02:30;1.33;;;0.40;;
35462;SDS011;21578;47.892;9.970;2024-02-15T15:07:17;2.00;;;0.53;;
35462;SDS011;21578;47.892;9.970;2024-02-15T15:12:23;1.23;;;0.47;;
35462;SDS011;21578;47.892;9.970;2024-02-15T15:17:24;1.50;;;0.37;;
35462;SDS011;21578;47.892;9.970;2024-02-15T15:22:12;0.43;;;0.40;;
35462;SDS011;21578;47.892;9.970;2024-02-15T15:26:59;2.07;;;0.70;;
35462;SDS011;21578;47.892;9.970;2024-02-15T15:31:52;0.90;;;0.63;;
35462;SDS011;21578;47.892;9.970;2024-02-15T15:36:39;0.90;;;0.60;;
35462;SDS011;21578;47.892;9.970;2024-02-15T15:41:26;1.57;;;0.93;;
35462;SDS011;21578;47.892;9.970;2024-02-15T15:46:13;11.20;;;6.80;;
35462;SDS011;21578;47.892;9.970;2024-02-15T15:51:02;11.67;;;6.53;;
35462;SDS011;21578;47.892;9.970;2024-02-15T15:55:50;2.77;;;1.80;;
35462;SDS011;21578;47.892;9.970;2024-02-15T16:00:37;0.90;;;0.90;;
35462;SDS011;21578;47.892;9.970;2024-02-15T16:05:23;1.20;;;1.10;;
35462;SDS011;21578;47.892;9.970;2024-02-15T16:10:12;2.93;;;0.60;;
35462;SDS011;21578;47.892;9.970;2024-02-15T16:15:00;2.93;;;0.60;;
35462;SDS011;21578;47.892;9.970;2024-02-15T16:19:50;0.97;;;0.57;;
35462;SDS011;21578;47.892;9.970;2024-02-15T16:24:37;1.87;;;1.10;;
35462;SDS011;21578;47.892;9.970;2024-02-15T16:29:25;6.23;;;3.87;;
35462;SDS011;21578;47.892;9.970;2024-02-15T16:34:12;2.80;;;1.20;;
35462;SDS011;21578;47.892;9.970;2024-02-15T16:39:01;1.60;;;1.20;;
35462;SDS011;21578;47.892;9.970;2024-02-15T16:43:48;2.90;;;2.37;;
35462;SDS011;21578;47.892;9.970;2024-02-15T16:48:39;4.30;;;3.30;;
35462;SDS011;21578;47.892;9.970;2024-02-15T16:53:26;6.33;;;4.70;;
35462;SDS011;21578;47.892;9.970;2024-02-15T16:58:14;5.40;;;4.13;;
35462;SDS011;21578;47.892;9.970;2024-02-15T17:03:05;7.73;;;5.17;;
35462;SDS011;21578;47.892;9.970;2024-02-15T17:07:53;18.53;;;11.43;;
35462;SDS011;21578;47.892;9.970;2024-02-15T17:12:41;5.87;;;2.67;;
35462;SDS011;21578;47.892;9.970;2024-02-15T17:17:28;10.20;;;5.70;;
35462;SDS011;21578;47.892;9.970;2024-02-15T17:22:15;13.47;;;8.70;;
35462;SDS011;21578;47.892;9.970;2024-02-15T17:27:03;9.00;;;6.50;;
35462;SDS011;21578;47.892;9.970;2024-02-15T17:31:51;7.20;;;6.43;;
35462;SDS011;21578;47.892;9.970;2024-02-15T17:36:37;2.00;;;1.33;;
35462;SDS011;21578;47.892;9.970;2024-02-15T17:41:25;3.37;;;2.63;;
35462;SDS011;21578;47.892;9.970;2024-02-15T17:46:15;4.20;;;3.50;;
35462;SDS011;21578;47.892;9.970;2024-02-15T17:51:02;1.50;;;1.40;;
35462;SDS011;21578;47.892;9.970;2024-02-15T17:55:51;9.00;;;6.00;;
35462;SDS011;21578;47.892;9.970;2024-02-15T18:00:41;6.77;;;6.07;;
35462;SDS011;21578;47.892;9.970;2024-02-15T18:05:29;2.03;;;1.93;;
35462;SDS011;21578;47.892;9.970;2024-02-15T18:10:17;9.57;;;8.67;;
35462;SDS011;21578;47.892;9.970;2024-02-15T18:15:06;6.80;;;6.20;;
35462;SDS011;21578;47.892;9.970;2024-02-15T18:19:58;6.50;;;4.20;;
35462;SDS011;21578;47.892;9.970;2024-02-15T18:24:46;6.13;;;5.63;;
35462;SDS011;21578;47.892;9.970;2024-02-15T18:29:33;25.23;;;21.27;;
35462;SDS011;21578;47.892;9.970;2024-02-15T18:34:21;10.53;;;7.77;;
35462;SDS011;21578;47.892;9.970;2024-02-15T18:39:08;19.87;;;16.20;;
35462;SDS011;21578;47.892;9.970;2024-02-15T18:43:57;28.03;;;23.27;;
35462;SDS011;21578;47.892;9.970;2024-02-15T18:48:44;31.70;;;22.70;;
35462;SDS011;21578;47.892;9.970;2024-02-15T18:53:32;66.80;;;46.80;;
35462;SDS011;21578;47.892;9.970;2024-02-15T18:58:19;4.63;;;3.53;;
35462;SDS011;21578;47.892;9.970;2024-02-15T19:03:08;10.77;;;9.67;;
35462;SDS011;21578;47.892;9.970;2024-02-15T19:07:55;14.50;;;11.20;;
35462;SDS011;21578;47.892;9.970;2024-02-15T19:12:42;20.47;;;15.70;;
35462;SDS011;21578;47.892;9.970;2024-02-15T19:17:29;20.17;;;12.83;;
35462;SDS011;21578;47.892;9.970;2024-02-15T19:22:18;3.07;;;2.33;;
35462;SDS011;21578;47.892;9.970;2024-02-15T19:27:05;1.60;;;1.50;;
35462;SDS011;21578;47.892;9.970;2024-02-15T19:31:52;2.40;;;1.40;;
35462;SDS011;21578;47.892;9.970;2024-02-15T19:36:40;11.23;;;6.27;;
35462;SDS011;21578;47.892;9.970;2024-02-15T19:41:29;1.40;;;1.30;;
35462;SDS011;21578;47.892;9.970;2024-02-15T19:46:16;6.10;;;4.67;;
35462;SDS011;21578;47.892;9.970;2024-02-15T19:51:03;4.70;;;3.67;;
35462;SDS011;21578;47.892;9.970;2024-02-15T19:55:50;5.03;;;3.23;;
35462;SDS011;21578;47.892;9.970;2024-02-15T20:00:39;2.00;;;1.80;;
35462;SDS011;21578;47.892;9.970;2024-02-15T20:05:26;1.63;;;1.53;;
35462;SDS011;21578;47.892;9.970;2024-02-15T20:10:13;1.67;;;1.57;;
35462;SDS011;21578;47.892;9.970;2024-02-15T20:15:00;2.57;;;1.80;;
35462;SDS011;21578;47.892;9.970;2024-02-15T20:19:49;2.27;;;2.00;;
35462;SDS011;21578;47.892;9.970;2024-02-15T20:24:35;2.93;;;2.67;;
35462;SDS011;21578;47.892;9.970;2024-02-15T20:29:23;2.47;;;1.83;;
35462;SDS011;21578;47.892;9.970;2024-02-15T20:34:10;2.30;;;2.10;;
35462;SDS011;21578;47.892;9.970;2024-02-15T20:38:58;2.53;;;2.33;;
35462;SDS011;21578;47.892;9.970;2024-02-15T20:43:45;5.30;;;3.43;;
35462;SDS011;21578;47.892;9.970;2024-02-15T20:48:32;5.37;;;3.10;;
35462;SDS011;21578;47.892;9.970;2024-02-15T20:53:19;3.03;;;2.60;;
35462;SDS011;21578;47.892;9.970;2024-02-15T20:58:07;2.93;;;2.30;;
35462;SDS011;21578;47.892;9.970;2024-02-15T21:02:54;1.40;;;1.00;;
35462;SDS011;21578;47.892;9.970;2024-02-15T21:07:41;3.83;;;1.23;;
35462;SDS011;21578;47.892;9.970;2024-02-15T21:12:30;1.10;;;1.00;;
35462;SDS011;21578;47.892;9.970;2024-02-15T21:17:19;1.37;;;1.17;;
35462;SDS011;21578;47.892;9.970;2024-02-15T21:22:07;2.00;;;1.30;;
35462;SDS011;21578;47.892;9.970;2024-02-15T21:26:54;1.30;;;1.07;;
35462;SDS011;21578;47.892;9.970;2024-02-15T21:31:43;1.47;;;1.00;;
35462;SDS011;21578;47.892;9.970;2024-02-15T21:36:32;1.33;;;1.00;;
35462;SDS011;21578;47.892;9.970;2024-02-15T21:41:19;8.77;;;5.00;;
35462;SDS011;21578;47.892;9.970;2024-02-15T21:46:06;11.23;;;5.43;;
35462;SDS011;21578;47.892;9.970;2024-02-15T21:50:53;4.53;;;2.80;;
35462;SDS011;21578;47.892;9.970;2024-02-15T21:55:42;5.67;;;3.20;;
35462;SDS011;21578;47.892;9.970;2024-02-15T22:00:29;9.43;;;5.17;;
35462;SDS011;21578;47.892;9.970;2024-02-15T22:05:16;9.73;;;5.50;;
35462;SDS011;21578;47.892;9.970;2024-02-15T22:10:04;14.53;;;7.47;;
35462;SDS011;21578;47.892;9.970;2024-02-15T22:14:55;26.83;;;13.63;;
35462;SDS011;21578;47.892;9.970;2024-02-15T22:19:45;27.77;;;14.40;;
35462;SDS011;21578;47.892;9.970;2024-02-15T22:24:32;21.03;;;11.53;;
35462;SDS011;21578;47.892;9.970;2024-02-15T22:29:19;12.13;;;6.97;;
35462;SDS011;21578;47.892;9.970;2024-02-15T22:34:08;4.70;;;2.70;;
35462;SDS011;21578;47.892;9.970;2024-02-15T22:38:57;4.00;;;2.90;;
35462;SDS011;21578;47.892;9.970;2024-02-15T22:43:44;3.87;;;2.63;;
35462;SDS011;21578;47.892;9.970;2024-02-15T22:48:31;2.43;;;2.00;;
35462;SDS011;21578;47.892;9.970;2024-02-15T22:53:19;2.00;;;1.50;;
35462;SDS011;21578;47.892;9.970;2024-02-15T22:58:06;1.57;;;1.47;;
35462;SDS011;21578;47.892;9.970;2024-02-15T23:02:53;1.93;;;1.70;;
35462;SDS011;21578;47.892;9.970;2024-02-15T23:07:40;3.60;;;2.20;;
35462;SDS011;21578;47.892;9.970;2024-02-15T23:12:29;3.10;;;1.50;;
35462;SDS011;21578;47.892;9.970;2024-02-15T23:17:15;1.67;;;1.40;;
35462;SDS011;21578;47.892;9.970;2024-02-15T23:22:02;1.80;;;1.30;;
35462;SDS011;21578;47.892;9.970;2024-02-15T23:26:50;1.00;;;0.90;;
35462;SDS011;21578;47.892;9.970;2024-02-15T23:31:38;1.30;;;0.90;;
35462;SDS011;21578;47.892;9.970;2024-02-15T23:36:26;1.17;;;1.07;;
35462;SDS011;21578;47.892;9.970;2024-02-15T23:41:31;0.70;;;0.70;;
35462;SDS011;21578;47.892;9.970;2024-02-15T23:46:18;0.93;;;0.77;;
35462;SDS011;21578;47.892;9.970;2024-02-15T23:51:07;1.23;;;1.10;;
35462;SDS011;21578;47.892;9.970;2024-02-15T23:55:55;3.57;;;1.23;;
